sensor_id;sensor_type;location;lat;lon;timestamp;temperature;humidity
69546;SHT31;56766;52.260;20.746;2023-08-06T00:01:23;19.30;90.76
69546;SHT31;56766;52.260;20.746;2023-08-06T00:03:51;19.32;90.72
69546;SHT31;56766;52.260;20.746;2023-08-06T00:06:18;19.31;90.77
69546;SHT31;56766;52.260;20.746;2023-08-06T00:08:45;19.30;90.82
69546;SHT31;56766;52.260;20.746;2023-08-06T00:11:11;19.27;90.82
69546;SHT31;56766;52.260;20.746;2023-08-06T00:13:39;19.25;90.89
69546;SHT31;56766;52.260;20.746;2023-08-06T00:16:13;19.23;90.84
69546;SHT31;56766;52.260;20.746;2023-08-06T00:18:40;19.22;90.84
69546;SHT31;56766;52.260;20.746;2023-08-06T00:21:08;19.19;90.87
69546;SHT31;56766;52.260;20.746;2023-08-06T00:23:34;19.16;90.90
69546;SHT31;56766;52.260;20.746;2023-08-06T00:26:01;19.13;90.93
69546;SHT31;56766;52.260;20.746;2023-08-06T00:28:28;19.12;91.00
69546;SHT31;56766;52.260;20.746;2023-08-06T00:30:55;19.11;90.98
69546;SHT31;56766;52.260;20.746;2023-08-06T00:33:23;19.10;90.98
69546;SHT31;56766;52.260;20.746;2023-08-06T00:35:50;19.11;91.00
69546;SHT31;56766;52.260;20.746;2023-08-06T00:38:17;19.08;91.03
69546;SHT31;56766;52.260;20.746;2023-08-06T00:40:43;19.06;91.00
69546;SHT31;56766;52.260;20.746;2023-08-06T00:43:10;19.05;91.01
69546;SHT31;56766;52.260;20.746;2023-08-06T00:45:37;19.04;91.05
69546;SHT31;56766;52.260;20.746;2023-08-06T00:48:05;19.03;91.03
69546;SHT31;56766;52.260;20.746;2023-08-06T00:50:35;19.02;91.08
69546;SHT31;56766;52.260;20.746;2023-08-06T00:53:02;19.00;91.12
69546;SHT31;56766;52.260;20.746;2023-08-06T00:55:29;18.97;91.24
69546;SHT31;56766;52.260;20.746;2023-08-06T00:57:56;18.94;91.41
69546;SHT31;56766;52.260;20.746;2023-08-06T01:00:24;18.90;91.59
69546;SHT31;56766;52.260;20.746;2023-08-06T01:02:53;18.86;91.78
69546;SHT31;56766;52.260;20.746;2023-08-06T01:05:22;18.84;91.92
69546;SHT31;56766;52.260;20.746;2023-08-06T01:14:52;18.79;92.09
69546;SHT31;56766;52.260;20.746;2023-08-06T01:17:39;18.78;92.16
69546;SHT31;56766;52.260;20.746;2023-08-06T01:20:07;18.78;92.21
69546;SHT31;56766;52.260;20.746;2023-08-06T01:22:34;18.78;92.28
69546;SHT31;56766;52.260;20.746;2023-08-06T01:25:01;18.78;92.39
69546;SHT31;56766;52.260;20.746;2023-08-06T01:27:49;18.78;92.42
69546;SHT31;56766;52.260;20.746;2023-08-06T01:30:25;18.78;92.49
69546;SHT31;56766;52.260;20.746;2023-08-06T01:33:04;18.79;92.50
69546;SHT31;56766;52.260;20.746;2023-08-06T01:35:34;18.80;92.44
69546;SHT31;56766;52.260;20.746;2023-08-06T01:38:02;18.82;92.42
69546;SHT31;56766;52.260;20.746;2023-08-06T01:40:30;18.83;92.37
69546;SHT31;56766;52.260;20.746;2023-08-06T01:42:57;18.86;92.30
69546;SHT31;56766;52.260;20.746;2023-08-06T01:45:23;18.87;92.28
69546;SHT31;56766;52.260;20.746;2023-08-06T01:47:50;18.92;92.64
69546;SHT31;56766;52.260;20.746;2023-08-06T01:50:17;18.99;92.85
69546;SHT31;56766;52.260;20.746;2023-08-06T01:52:43;19.04;92.81
69546;SHT31;56766;52.260;20.746;2023-08-06T01:55:10;19.06;92.80
69546;SHT31;56766;52.260;20.746;2023-08-06T01:57:37;19.06;92.67
69546;SHT31;56766;52.260;20.746;2023-08-06T02:00:04;19.07;92.55
69546;SHT31;56766;52.260;20.746;2023-08-06T02:02:31;19.05;92.60
69546;SHT31;56766;52.260;20.746;2023-08-06T02:04:57;19.05;92.54
69546;SHT31;56766;52.260;20.746;2023-08-06T02:07:24;19.04;92.51
69546;SHT31;56766;52.260;20.746;2023-08-06T02:09:51;19.05;92.51
69546;SHT31;56766;52.260;20.746;2023-08-06T02:12:18;19.05;92.42
69546;SHT31;56766;52.260;20.746;2023-08-06T02:14:44;19.05;92.42
69546;SHT31;56766;52.260;20.746;2023-08-06T02:17:11;19.03;92.58
69546;SHT31;56766;52.260;20.746;2023-08-06T02:19:38;19.03;92.64
69546;SHT31;56766;52.260;20.746;2023-08-06T02:22:04;19.03;92.75
69546;SHT31;56766;52.260;20.746;2023-08-06T02:24:31;19.03;92.84
69546;SHT31;56766;52.260;20.746;2023-08-06T02:27:00;19.02;92.76
69546;SHT31;56766;52.260;20.746;2023-08-06T02:29:27;19.02;92.82
69546;SHT31;56766;52.260;20.746;2023-08-06T02:31:54;19.03;92.89
69546;SHT31;56766;52.260;20.746;2023-08-06T02:34:22;19.02;92.99
69546;SHT31;56766;52.260;20.746;2023-08-06T02:36:53;19.03;92.86
69546;SHT31;56766;52.260;20.746;2023-08-06T02:39:20;19.04;92.84
69546;SHT31;56766;52.260;20.746;2023-08-06T02:41:46;19.05;92.79
69546;SHT31;56766;52.260;20.746;2023-08-06T02:44:15;19.06;92.80
69546;SHT31;56766;52.260;20.746;2023-08-06T02:46:44;19.08;92.77
69546;SHT31;56766;52.260;20.746;2023-08-06T02:49:11;19.10;92.80
69546;SHT31;56766;52.260;20.746;2023-08-06T02:51:38;19.13;92.80
69546;SHT31;56766;52.260;20.746;2023-08-06T02:54:04;19.15;92.77
69546;SHT31;56766;52.260;20.746;2023-08-06T02:56:34;19.17;92.69
69546;SHT31;56766;52.260;20.746;2023-08-06T02:59:02;19.19;92.58
69546;SHT31;56766;52.260;20.746;2023-08-06T03:01:29;19.22;92.50
69546;SHT31;56766;52.260;20.746;2023-08-06T03:03:59;19.25;92.45
69546;SHT31;56766;52.260;20.746;2023-08-06T03:06:25;19.26;92.40
69546;SHT31;56766;52.260;20.746;2023-08-06T03:08:52;19.28;92.36
69546;SHT31;56766;52.260;20.746;2023-08-06T03:11:18;19.29;92.30
69546;SHT31;56766;52.260;20.746;2023-08-06T03:13:46;19.31;92.28
69546;SHT31;56766;52.260;20.746;2023-08-06T03:16:15;19.32;92.26
69546;SHT31;56766;52.260;20.746;2023-08-06T03:18:45;19.30;92.29
69546;SHT31;56766;52.260;20.746;2023-08-06T03:21:12;19.31;92.30
69546;SHT31;56766;52.260;20.746;2023-08-06T03:23:38;19.32;92.34
69546;SHT31;56766;52.260;20.746;2023-08-06T03:26:05;19.32;92.39
69546;SHT31;56766;52.260;20.746;2023-08-06T03:28:32;19.32;92.39
69546;SHT31;56766;52.260;20.746;2023-08-06T03:31:00;19.33;92.41
69546;SHT31;56766;52.260;20.746;2023-08-06T03:33:29;19.34;92.44
69546;SHT31;56766;52.260;20.746;2023-08-06T03:35:56;19.35;92.40
69546;SHT31;56766;52.260;20.746;2023-08-06T03:38:23;19.36;92.41
69546;SHT31;56766;52.260;20.746;2023-08-06T03:40:50;19.37;92.44
69546;SHT31;56766;52.260;20.746;2023-08-06T03:43:16;19.39;92.42
69546;SHT31;56766;52.260;20.746;2023-08-06T03:45:45;19.41;92.48
69546;SHT31;56766;52.260;20.746;2023-08-06T03:48:12;19.43;92.41
69546;SHT31;56766;52.260;20.746;2023-08-06T03:50:39;19.45;92.43
69546;SHT31;56766;52.260;20.746;2023-08-06T03:53:09;19.45;92.42
69546;SHT31;56766;52.260;20.746;2023-08-06T03:55:40;19.46;92.48
69546;SHT31;56766;52.260;20.746;2023-08-06T03:58:06;19.47;92.50
69546;SHT31;56766;52.260;20.746;2023-08-06T04:00:33;19.48;92.51
69546;SHT31;56766;52.260;20.746;2023-08-06T04:03:00;19.49;92.55
69546;SHT31;56766;52.260;20.746;2023-08-06T04:05:27;19.51;92.50
69546;SHT31;56766;52.260;20.746;2023-08-06T04:07:53;19.54;92.61
69546;SHT31;56766;52.260;20.746;2023-08-06T04:10:20;19.54;92.66
69546;SHT31;56766;52.260;20.746;2023-08-06T04:12:47;19.56;92.60
69546;SHT31;56766;52.260;20.746;2023-08-06T04:15:14;19.61;92.61
69546;SHT31;56766;52.260;20.746;2023-08-06T04:17:41;19.65;92.52
69546;SHT31;56766;52.260;20.746;2023-08-06T04:20:08;19.68;92.50
69546;SHT31;56766;52.260;20.746;2023-08-06T04:22:35;19.72;92.47
69546;SHT31;56766;52.260;20.746;2023-08-06T04:25:01;19.75;92.41
69546;SHT31;56766;52.260;20.746;2023-08-06T04:27:28;19.77;92.42
69546;SHT31;56766;52.260;20.746;2023-08-06T04:29:55;19.80;92.40
69546;SHT31;56766;52.260;20.746;2023-08-06T04:32:22;19.83;92.31
69546;SHT31;56766;52.260;20.746;2023-08-06T04:34:48;19.88;92.26
69546;SHT31;56766;52.260;20.746;2023-08-06T04:37:15;19.93;92.21
69546;SHT31;56766;52.260;20.746;2023-08-06T04:39:42;19.97;92.17
69546;SHT31;56766;52.260;20.746;2023-08-06T04:42:08;19.99;92.12
69546;SHT31;56766;52.260;20.746;2023-08-06T04:44:35;20.00;92.10
69546;SHT31;56766;52.260;20.746;2023-08-06T04:47:02;20.03;92.02
69546;SHT31;56766;52.260;20.746;2023-08-06T04:49:29;20.05;92.01
69546;SHT31;56766;52.260;20.746;2023-08-06T04:51:55;20.09;91.96
69546;SHT31;56766;52.260;20.746;2023-08-06T04:54:22;20.15;91.89
69546;SHT31;56766;52.260;20.746;2023-08-06T04:56:48;20.22;91.83
69546;SHT31;56766;52.260;20.746;2023-08-06T04:59:15;20.31;91.75
69546;SHT31;56766;52.260;20.746;2023-08-06T05:01:41;20.41;91.66
69546;SHT31;56766;52.260;20.746;2023-08-06T05:04:08;20.45;91.45
69546;SHT31;56766;52.260;20.746;2023-08-06T05:06:35;20.48;91.30
69546;SHT31;56766;52.260;20.746;2023-08-06T05:09:04;20.55;91.30
69546;SHT31;56766;52.260;20.746;2023-08-06T05:11:32;20.67;91.22
69546;SHT31;56766;52.260;20.746;2023-08-06T05:13:59;20.75;90.95
69546;SHT31;56766;52.260;20.746;2023-08-06T05:16:25;20.84;90.90
69546;SHT31;56766;52.260;20.746;2023-08-06T05:18:52;20.93;90.67
69546;SHT31;56766;52.260;20.746;2023-08-06T05:21:18;21.01;90.44
69546;SHT31;56766;52.260;20.746;2023-08-06T05:23:45;21.06;90.13
69546;SHT31;56766;52.260;20.746;2023-08-06T05:26:12;21.13;90.04
69546;SHT31;56766;52.260;20.746;2023-08-06T05:28:40;21.25;90.14
69546;SHT31;56766;52.260;20.746;2023-08-06T05:31:07;21.36;89.73
69546;SHT31;56766;52.260;20.746;2023-08-06T05:33:34;21.41;89.30
69546;SHT31;56766;52.260;20.746;2023-08-06T05:36:00;21.44;88.82
69546;SHT31;56766;52.260;20.746;2023-08-06T05:38:27;21.55;89.03
69546;SHT31;56766;52.260;20.746;2023-08-06T05:40:54;21.66;88.63
69546;SHT31;56766;52.260;20.746;2023-08-06T05:43:22;21.79;88.57
69546;SHT31;56766;52.260;20.746;2023-08-06T05:45:51;21.94;88.18
69546;SHT31;56766;52.260;20.746;2023-08-06T05:48:18;22.13;88.14
69546;SHT31;56766;52.260;20.746;2023-08-06T05:50:45;22.31;87.89
69546;SHT31;56766;52.260;20.746;2023-08-06T05:53:11;22.51;87.90
69546;SHT31;56766;52.260;20.746;2023-08-06T05:55:38;22.64;87.24
69546;SHT31;56766;52.260;20.746;2023-08-06T05:58:05;22.84;87.21
69546;SHT31;56766;52.260;20.746;2023-08-06T06:00:37;22.99;86.52
69546;SHT31;56766;52.260;20.746;2023-08-06T06:03:06;23.03;85.46
69546;SHT31;56766;52.260;20.746;2023-08-06T06:05:33;23.08;85.54
69546;SHT31;56766;52.260;20.746;2023-08-06T06:08:00;23.11;85.03
69546;SHT31;56766;52.260;20.746;2023-08-06T06:10:27;23.19;84.67
69546;SHT31;56766;52.260;20.746;2023-08-06T06:12:57;23.29;84.64
69546;SHT31;56766;52.260;20.746;2023-08-06T06:15:24;23.42;84.40
69546;SHT31;56766;52.260;20.746;2023-08-06T06:17:51;23.60;84.73
69546;SHT31;56766;52.260;20.746;2023-08-06T06:20:18;23.81;84.35
69546;SHT31;56766;52.260;20.746;2023-08-06T06:22:44;23.96;84.01
69546;SHT31;56766;52.260;20.746;2023-08-06T06:25:11;24.02;83.28
69546;SHT31;56766;52.260;20.746;2023-08-06T06:27:38;23.98;83.09
69546;SHT31;56766;52.260;20.746;2023-08-06T06:30:05;23.90;82.87
69546;SHT31;56766;52.260;20.746;2023-08-06T06:32:32;23.87;82.88
69546;SHT31;56766;52.260;20.746;2023-08-06T06:35:03;24.12;83.25
69546;SHT31;56766;52.260;20.746;2023-08-06T06:37:30;24.51;82.89
69546;SHT31;56766;52.260;20.746;2023-08-06T06:39:57;24.75;82.18
69546;SHT31;56766;52.260;20.746;2023-08-06T06:42:23;24.87;81.50
69546;SHT31;56766;52.260;20.746;2023-08-06T06:44:50;24.99;81.20
69546;SHT31;56766;52.260;20.746;2023-08-06T06:47:18;25.12;80.75
69546;SHT31;56766;52.260;20.746;2023-08-06T06:49:47;25.22;80.31
69546;SHT31;56766;52.260;20.746;2023-08-06T06:52:14;25.37;80.29
69546;SHT31;56766;52.260;20.746;2023-08-06T06:54:41;25.51;78.94
69546;SHT31;56766;52.260;20.746;2023-08-06T06:57:10;25.55;77.98
69546;SHT31;56766;52.260;20.746;2023-08-06T06:59:37;25.56;78.29
69546;SHT31;56766;52.260;20.746;2023-08-06T07:02:05;25.51;77.45
69546;SHT31;56766;52.260;20.746;2023-08-06T07:04:32;25.55;76.82
69546;SHT31;56766;52.260;20.746;2023-08-06T07:06:58;25.62;76.81
69546;SHT31;56766;52.260;20.746;2023-08-06T07:09:25;25.73;77.39
69546;SHT31;56766;52.260;20.746;2023-08-06T07:11:52;25.88;77.18
69546;SHT31;56766;52.260;20.746;2023-08-06T07:14:19;25.90;76.58
69546;SHT31;56766;52.260;20.746;2023-08-06T07:16:45;25.84;76.61
69546;SHT31;56766;52.260;20.746;2023-08-06T07:19:14;25.79;76.49
69546;SHT31;56766;52.260;20.746;2023-08-06T07:21:41;25.75;75.97
69546;SHT31;56766;52.260;20.746;2023-08-06T07:24:08;25.75;76.07
69546;SHT31;56766;52.260;20.746;2023-08-06T07:26:36;25.97;76.62
69546;SHT31;56766;52.260;20.746;2023-08-06T07:29:02;26.18;76.04
69546;SHT31;56766;52.260;20.746;2023-08-06T07:31:32;26.13;75.38
69546;SHT31;56766;52.260;20.746;2023-08-06T07:33:59;26.00;75.33
69546;SHT31;56766;52.260;20.746;2023-08-06T07:36:25;26.04;75.66
69546;SHT31;56766;52.260;20.746;2023-08-06T07:38:52;26.15;75.01
69546;SHT31;56766;52.260;20.746;2023-08-06T07:41:23;26.25;74.63
69546;SHT31;56766;52.260;20.746;2023-08-06T07:43:50;26.44;74.64
69546;SHT31;56766;52.260;20.746;2023-08-06T07:46:16;26.67;74.11
69546;SHT31;56766;52.260;20.746;2023-08-06T07:48:43;26.79;72.90
69546;SHT31;56766;52.260;20.746;2023-08-06T07:51:10;26.86;72.51
69546;SHT31;56766;52.260;20.746;2023-08-06T07:53:37;26.94;72.97
69546;SHT31;56766;52.260;20.746;2023-08-06T07:56:04;27.05;72.63
69546;SHT31;56766;52.260;20.746;2023-08-06T07:58:31;27.18;72.49
69546;SHT31;56766;52.260;20.746;2023-08-06T08:01:01;27.32;71.56
69546;SHT31;56766;52.260;20.746;2023-08-06T08:03:28;27.48;71.41
69546;SHT31;56766;52.260;20.746;2023-08-06T08:05:55;27.64;71.32
69546;SHT31;56766;52.260;20.746;2023-08-06T08:08:25;27.68;70.85
69546;SHT31;56766;52.260;20.746;2023-08-06T08:10:52;27.72;70.33
69546;SHT31;56766;52.260;20.746;2023-08-06T08:13:25;27.83;69.58
69546;SHT31;56766;52.260;20.746;2023-08-06T08:15:58;27.81;69.18
69546;SHT31;56766;52.260;20.746;2023-08-06T08:18:25;27.77;69.03
69546;SHT31;56766;52.260;20.746;2023-08-06T08:20:53;27.83;69.74
69546;SHT31;56766;52.260;20.746;2023-08-06T08:23:20;28.01;69.35
69546;SHT31;56766;52.260;20.746;2023-08-06T08:25:47;28.18;69.14
69546;SHT31;56766;52.260;20.746;2023-08-06T08:28:13;28.37;68.64
69546;SHT31;56766;52.260;20.746;2023-08-06T08:30:41;28.56;68.60
69546;SHT31;56766;52.260;20.746;2023-08-06T08:33:08;28.74;68.66
69546;SHT31;56766;52.260;20.746;2023-08-06T08:35:36;28.90;67.59
69546;SHT31;56766;52.260;20.746;2023-08-06T08:38:03;28.99;67.09
69546;SHT31;56766;52.260;20.746;2023-08-06T08:40:39;29.07;67.33
69546;SHT31;56766;52.260;20.746;2023-08-06T08:43:15;29.18;66.77
69546;SHT31;56766;52.260;20.746;2023-08-06T08:45:43;29.24;66.64
69546;SHT31;56766;52.260;20.746;2023-08-06T08:48:16;29.23;65.99
69546;SHT31;56766;52.260;20.746;2023-08-06T08:50:48;29.27;66.08
69546;SHT31;56766;52.260;20.746;2023-08-06T08:53:21;29.27;65.44
69546;SHT31;56766;52.260;20.746;2023-08-06T08:55:53;29.19;64.73
69546;SHT31;56766;52.260;20.746;2023-08-06T08:58:24;29.29;64.28
69546;SHT31;56766;52.260;20.746;2023-08-06T09:00:53;29.62;64.56
69546;SHT31;56766;52.260;20.746;2023-08-06T09:03:20;29.91;64.13
69546;SHT31;56766;52.260;20.746;2023-08-06T09:05:52;30.08;63.52
69546;SHT31;56766;52.260;20.746;2023-08-06T09:08:26;30.32;62.80
69546;SHT31;56766;52.260;20.746;2023-08-06T09:10:58;30.53;62.96
69546;SHT31;56766;52.260;20.746;2023-08-06T09:13:27;30.80;63.15
69546;SHT31;56766;52.260;20.746;2023-08-06T09:15:54;31.04;61.99
69546;SHT31;56766;52.260;20.746;2023-08-06T09:18:26;31.28;60.75
69546;SHT31;56766;52.260;20.746;2023-08-06T09:20:58;31.51;60.59
69546;SHT31;56766;52.260;20.746;2023-08-06T09:23:30;31.68;60.81
69546;SHT31;56766;52.260;20.746;2023-08-06T09:25:59;31.59;59.18
69546;SHT31;56766;52.260;20.746;2023-08-06T09:28:37;31.44;59.91
69546;SHT31;56766;52.260;20.746;2023-08-06T09:31:05;31.49;59.52
69546;SHT31;56766;52.260;20.746;2023-08-06T09:33:32;31.74;59.57
69546;SHT31;56766;52.260;20.746;2023-08-06T09:36:07;31.87;59.43
69546;SHT31;56766;52.260;20.746;2023-08-06T09:38:40;31.84;58.53
69546;SHT31;56766;52.260;20.746;2023-08-06T09:41:07;31.74;59.00
69546;SHT31;56766;52.260;20.746;2023-08-06T09:43:42;31.69;58.60
69546;SHT31;56766;52.260;20.746;2023-08-06T09:46:15;31.70;58.19
69546;SHT31;56766;52.260;20.746;2023-08-06T09:48:50;31.62;58.08
69546;SHT31;56766;52.260;20.746;2023-08-06T09:51:17;31.38;57.34
69546;SHT31;56766;52.260;20.746;2023-08-06T09:53:44;31.12;57.66
69546;SHT31;56766;52.260;20.746;2023-08-06T09:56:15;30.95;57.89
69546;SHT31;56766;52.260;20.746;2023-08-06T09:58:44;30.88;58.49
69546;SHT31;56766;52.260;20.746;2023-08-06T10:01:13;31.04;59.01
69546;SHT31;56766;52.260;20.746;2023-08-06T10:03:44;31.39;58.09
69546;SHT31;56766;52.260;20.746;2023-08-06T10:06:11;31.66;56.31
69546;SHT31;56766;52.260;20.746;2023-08-06T10:08:39;31.91;56.64
69546;SHT31;56766;52.260;20.746;2023-08-06T10:11:08;32.23;57.03
69546;SHT31;56766;52.260;20.746;2023-08-06T10:13:37;32.60;55.97
69546;SHT31;56766;52.260;20.746;2023-08-06T10:16:06;32.86;54.57
69546;SHT31;56766;52.260;20.746;2023-08-06T10:18:36;33.13;54.74
69546;SHT31;56766;52.260;20.746;2023-08-06T10:21:08;33.34;53.42
69546;SHT31;56766;52.260;20.746;2023-08-06T10:23:36;33.32;52.89
69546;SHT31;56766;52.260;20.746;2023-08-06T10:26:07;33.25;52.81
69546;SHT31;56766;52.260;20.746;2023-08-06T10:28:36;33.01;52.65
69546;SHT31;56766;52.260;20.746;2023-08-06T10:31:04;32.94;51.85
69546;SHT31;56766;52.260;20.746;2023-08-06T10:33:45;32.71;52.14
69546;SHT31;56766;52.260;20.746;2023-08-06T10:36:17;32.46;52.62
69546;SHT31;56766;52.260;20.746;2023-08-06T10:38:48;32.44;52.64
69546;SHT31;56766;52.260;20.746;2023-08-06T10:41:28;32.65;51.94
69546;SHT31;56766;52.260;20.746;2023-08-06T10:44:06;32.79;51.72
69546;SHT31;56766;52.260;20.746;2023-08-06T10:46:35;33.01;51.67
69546;SHT31;56766;52.260;20.746;2023-08-06T10:49:04;33.12;50.97
69546;SHT31;56766;52.260;20.746;2023-08-06T10:51:31;33.23;50.69
69546;SHT31;56766;52.260;20.746;2023-08-06T10:53:57;33.45;50.63
69546;SHT31;56766;52.260;20.746;2023-08-06T10:56:25;33.53;50.33
69546;SHT31;56766;52.260;20.746;2023-08-06T10:58:56;33.26;51.04
69546;SHT31;56766;52.260;20.746;2023-08-06T11:01:24;32.93;50.78
69546;SHT31;56766;52.260;20.746;2023-08-06T11:04:02;32.69;51.02
69546;SHT31;56766;52.260;20.746;2023-08-06T11:06:29;32.65;50.86
69546;SHT31;56766;52.260;20.746;2023-08-06T11:08:56;32.99;51.37
69546;SHT31;56766;52.260;20.746;2023-08-06T11:11:23;32.99;50.37
69546;SHT31;56766;52.260;20.746;2023-08-06T11:13:51;32.78;51.37
69546;SHT31;56766;52.260;20.746;2023-08-06T11:16:22;32.64;51.79
69546;SHT31;56766;52.260;20.746;2023-08-06T11:18:51;32.49;51.97
69546;SHT31;56766;52.260;20.746;2023-08-06T11:21:20;32.23;51.91
69546;SHT31;56766;52.260;20.746;2023-08-06T11:23:48;31.94;52.55
69546;SHT31;56766;52.260;20.746;2023-08-06T11:26:19;31.77;52.76
69546;SHT31;56766;52.260;20.746;2023-08-06T11:28:46;31.49;52.63
69546;SHT31;56766;52.260;20.746;2023-08-06T11:31:21;31.17;52.88
69546;SHT31;56766;52.260;20.746;2023-08-06T11:33:55;30.84;53.38
69546;SHT31;56766;52.260;20.746;2023-08-06T11:36:32;30.53;53.77
69546;SHT31;56766;52.260;20.746;2023-08-06T11:39:07;30.32;54.64
69546;SHT31;56766;52.260;20.746;2023-08-06T11:41:36;30.34;55.31
69546;SHT31;56766;52.260;20.746;2023-08-06T11:44:04;30.78;55.23
69546;SHT31;56766;52.260;20.746;2023-08-06T11:46:55;31.23;54.45
69546;SHT31;56766;52.260;20.746;2023-08-06T11:52:18;31.40;55.09
69546;SHT31;56766;52.260;20.746;2023-08-06T11:55:04;31.18;55.64
69546;SHT31;56766;52.260;20.746;2023-08-06T11:57:34;30.92;55.64
69546;SHT31;56766;52.260;20.746;2023-08-06T12:00:13;30.64;55.80
69546;SHT31;56766;52.260;20.746;2023-08-06T12:02:43;30.47;56.58
69546;SHT31;56766;52.260;20.746;2023-08-06T12:05:11;30.45;56.90
69546;SHT31;56766;52.260;20.746;2023-08-06T12:07:47;30.85;57.12
69546;SHT31;56766;52.260;20.746;2023-08-06T12:10:16;31.38;56.20
69546;SHT31;56766;52.260;20.746;2023-08-06T12:12:46;31.69;53.64
69546;SHT31;56766;52.260;20.746;2023-08-06T12:15:14;31.74;52.32
69546;SHT31;56766;52.260;20.746;2023-08-06T12:17:41;31.58;51.90
69546;SHT31;56766;52.260;20.746;2023-08-06T12:20:10;31.33;51.73
69546;SHT31;56766;52.260;20.746;2023-08-06T12:22:37;31.16;51.53
69546;SHT31;56766;52.260;20.746;2023-08-06T12:25:08;31.15;52.18
69546;SHT31;56766;52.260;20.746;2023-08-06T12:27:40;31.21;52.05
69546;SHT31;56766;52.260;20.746;2023-08-06T12:30:09;31.25;52.00
69546;SHT31;56766;52.260;20.746;2023-08-06T12:32:38;31.26;52.02
69546;SHT31;56766;52.260;20.746;2023-08-06T12:35:05;31.18;52.10
69546;SHT31;56766;52.260;20.746;2023-08-06T12:37:37;31.07;52.54
69546;SHT31;56766;52.260;20.746;2023-08-06T12:40:08;30.89;52.00
69546;SHT31;56766;52.260;20.746;2023-08-06T12:42:35;30.63;51.56
69546;SHT31;56766;52.260;20.746;2023-08-06T12:45:01;30.37;51.85
69546;SHT31;56766;52.260;20.746;2023-08-06T12:47:29;30.14;52.76
69546;SHT31;56766;52.260;20.746;2023-08-06T12:49:55;29.89;53.13
69546;SHT31;56766;52.260;20.746;2023-08-06T12:52:22;29.67;52.93
69546;SHT31;56766;52.260;20.746;2023-08-06T12:54:51;29.46;52.31
69546;SHT31;56766;52.260;20.746;2023-08-06T12:57:18;29.32;52.20
69546;SHT31;56766;52.260;20.746;2023-08-06T12:59:45;29.23;52.22
69546;SHT31;56766;52.260;20.746;2023-08-06T13:02:11;29.23;52.21
69546;SHT31;56766;52.260;20.746;2023-08-06T13:04:38;29.31;52.54
69546;SHT31;56766;52.260;20.746;2023-08-06T13:07:06;29.51;52.90
69546;SHT31;56766;52.260;20.746;2023-08-06T13:09:33;29.73;52.77
69546;SHT31;56766;52.260;20.746;2023-08-06T13:11:59;29.86;52.70
69546;SHT31;56766;52.260;20.746;2023-08-06T13:14:29;29.91;53.27
69546;SHT31;56766;52.260;20.746;2023-08-06T13:16:55;29.99;54.69
69546;SHT31;56766;52.260;20.746;2023-08-06T13:19:23;30.18;55.88
69546;SHT31;56766;52.260;20.746;2023-08-06T13:24:31;30.52;56.56
69546;SHT31;56766;52.260;20.746;2023-08-06T13:27:00;30.71;56.79
69546;SHT31;56766;52.260;20.746;2023-08-06T13:29:27;31.03;56.72
69546;SHT31;56766;52.260;20.746;2023-08-06T13:31:55;31.25;56.36
69546;SHT31;56766;52.260;20.746;2023-08-06T13:34:22;31.50;54.52
69546;SHT31;56766;52.260;20.746;2023-08-06T13:36:49;31.63;52.81
69546;SHT31;56766;52.260;20.746;2023-08-06T13:39:23;31.56;52.48
69546;SHT31;56766;52.260;20.746;2023-08-06T13:41:50;31.42;52.09
69546;SHT31;56766;52.260;20.746;2023-08-06T13:44:16;31.02;51.71
69546;SHT31;56766;52.260;20.746;2023-08-06T13:46:43;30.69;52.80
69546;SHT31;56766;52.260;20.746;2023-08-06T13:49:10;30.57;53.37
69546;SHT31;56766;52.260;20.746;2023-08-06T13:51:37;30.66;53.90
69546;SHT31;56766;52.260;20.746;2023-08-06T13:54:04;30.70;53.58
69546;SHT31;56766;52.260;20.746;2023-08-06T13:56:32;30.65;53.54
69546;SHT31;56766;52.260;20.746;2023-08-06T13:59:00;30.52;53.24
69546;SHT31;56766;52.260;20.746;2023-08-06T14:01:30;30.42;53.64
69546;SHT31;56766;52.260;20.746;2023-08-06T14:03:57;30.38;53.93
69546;SHT31;56766;52.260;20.746;2023-08-06T14:06:27;30.24;54.08
69546;SHT31;56766;52.260;20.746;2023-08-06T14:08:53;30.07;54.53
69546;SHT31;56766;52.260;20.746;2023-08-06T14:11:20;29.89;54.98
69546;SHT31;56766;52.260;20.746;2023-08-06T14:13:47;29.78;55.36
69546;SHT31;56766;52.260;20.746;2023-08-06T14:16:13;29.65;54.94
69546;SHT31;56766;52.260;20.746;2023-08-06T14:18:40;29.52;55.57
69546;SHT31;56766;52.260;20.746;2023-08-06T14:21:08;29.36;55.97
69546;SHT31;56766;52.260;20.746;2023-08-06T14:23:34;29.28;56.38
69546;SHT31;56766;52.260;20.746;2023-08-06T14:26:01;29.20;56.58
69546;SHT31;56766;52.260;20.746;2023-08-06T14:28:28;29.09;56.91
69546;SHT31;56766;52.260;20.746;2023-08-06T14:30:55;29.03;57.05
69546;SHT31;56766;52.260;20.746;2023-08-06T14:33:22;28.93;57.14
69546;SHT31;56766;52.260;20.746;2023-08-06T14:35:48;28.74;57.69
69546;SHT31;56766;52.260;20.746;2023-08-06T14:38:15;28.53;58.32
69546;SHT31;56766;52.260;20.746;2023-08-06T14:40:43;28.31;58.96
69546;SHT31;56766;52.260;20.746;2023-08-06T14:43:10;28.24;59.58
69546;SHT31;56766;52.260;20.746;2023-08-06T14:45:38;28.37;59.96
69546;SHT31;56766;52.260;20.746;2023-08-06T14:48:06;28.59;60.13
69546;SHT31;56766;52.260;20.746;2023-08-06T14:50:33;28.72;59.97
69546;SHT31;56766;52.260;20.746;2023-08-06T14:53:01;28.71;59.61
69546;SHT31;56766;52.260;20.746;2023-08-06T14:55:29;28.72;59.66
69546;SHT31;56766;52.260;20.746;2023-08-06T14:57:55;28.72;58.93
69546;SHT31;56766;52.260;20.746;2023-08-06T15:00:22;28.68;58.53
69546;SHT31;56766;52.260;20.746;2023-08-06T15:02:49;28.73;58.42
69546;SHT31;56766;52.260;20.746;2023-08-06T15:05:16;28.77;57.78
69546;SHT31;56766;52.260;20.746;2023-08-06T15:07:43;28.72;57.47
69546;SHT31;56766;52.260;20.746;2023-08-06T15:10:10;28.69;57.39
69546;SHT31;56766;52.260;20.746;2023-08-06T15:12:36;28.73;57.17
69546;SHT31;56766;52.260;20.746;2023-08-06T15:15:07;28.72;56.84
69546;SHT31;56766;52.260;20.746;2023-08-06T15:17:34;28.69;56.92
69546;SHT31;56766;52.260;20.746;2023-08-06T15:20:00;28.61;57.02
69546;SHT31;56766;52.260;20.746;2023-08-06T15:22:27;28.53;57.40
69546;SHT31;56766;52.260;20.746;2023-08-06T15:24:55;28.50;57.58
69546;SHT31;56766;52.260;20.746;2023-08-06T15:27:21;28.45;57.56
69546;SHT31;56766;52.260;20.746;2023-08-06T15:29:48;28.37;57.36
69546;SHT31;56766;52.260;20.746;2023-08-06T15:32:15;28.30;57.47
69546;SHT31;56766;52.260;20.746;2023-08-06T15:34:41;28.26;57.24